sensor_id;sensor_type;location;lat;lon;timestamp;P1;durP1;ratioP1;P2;durP2;ratioP2
23159;SDS011;11748;50.844;4.396;2023-04-19T00:01:38;25.40;;;21.67;;
23159;SDS011;11748;50.844;4.396;2023-04-19T00:04:05;28.83;;;23.05;;
23159;SDS011;11748;50.844;4.396;2023-04-19T00:06:32;26.30;;;22.83;;
23159;SDS011;11748;50.844;4.396;2023-04-19T00:08:58;26.25;;;22.50;;
23159;SDS011;11748;50.844;4.396;2023-04-19T00:11:24;28.48;;;22.70;;
23159;SDS011;11748;50.844;4.396;2023-04-19T00:13:49;29.75;;;23.17;;
23159;SDS011;11748;50.844;4.396;2023-04-19T00:16:15;27.52;;;22.60;;
23159;SDS011;11748;50.844;4.396;2023-04-19T00:18:41;28.65;;;23.95;;
23159;SDS011;11748;50.844;4.396;2023-04-19T00:21:07;27.95;;;22.30;;
23159;SDS011;11748;50.844;4.396;2023-04-19T00:23:33;26.02;;;22.63;;
23159;SDS011;11748;50.844;4.396;2023-04-19T00:26:02;29.42;;;23.33;;
23159;SDS011;11748;50.844;4.396;2023-04-19T00:28:28;30.58;;;23.13;;
23159;SDS011;11748;50.844;4.396;2023-04-19T00:30:55;28.17;;;22.85;;
23159;SDS011;11748;50.844;4.396;2023-04-19T00:33:20;28.48;;;23.00;;
23159;SDS011;11748;50.844;4.396;2023-04-19T00:35:46;28.75;;;22.23;;
23159;SDS011;11748;50.844;4.396;2023-04-19T00:38:12;31.23;;;23.75;;
23159;SDS011;11748;50.844;4.396;2023-04-19T00:40:37;29.63;;;23.55;;
23159;SDS011;11748;50.844;4.396;2023-04-19T00:43:03;33.53;;;23.23;;
23159;SDS011;11748;50.844;4.396;2023-04-19T00:45:29;26.73;;;22.23;;
23159;SDS011;11748;50.844;4.396;2023-04-19T00:47:59;28.15;;;23.38;;
23159;SDS011;11748;50.844;4.396;2023-04-19T00:50:25;29.45;;;23.27;;
23159;SDS011;11748;50.844;4.396;2023-04-19T00:52:51;28.77;;;23.00;;
23159;SDS011;11748;50.844;4.396;2023-04-19T00:55:19;29.90;;;23.77;;
23159;SDS011;11748;50.844;4.396;2023-04-19T00:57:46;28.13;;;23.67;;
23159;SDS011;11748;50.844;4.396;2023-04-19T01:00:12;28.10;;;23.23;;
23159;SDS011;11748;50.844;4.396;2023-04-19T01:02:39;30.10;;;23.52;;
23159;SDS011;11748;50.844;4.396;2023-04-19T01:05:05;30.45;;;24.05;;
23159;SDS011;11748;50.844;4.396;2023-04-19T01:07:32;32.00;;;24.35;;
23159;SDS011;11748;50.844;4.396;2023-04-19T01:09:58;30.80;;;24.13;;
23159;SDS011;11748;50.844;4.396;2023-04-19T01:12:24;32.72;;;25.73;;
23159;SDS011;11748;50.844;4.396;2023-04-19T01:14:50;30.83;;;24.50;;
23159;SDS011;11748;50.844;4.396;2023-04-19T01:17:16;31.40;;;25.15;;
23159;SDS011;11748;50.844;4.396;2023-04-19T01:19:43;31.63;;;24.85;;
23159;SDS011;11748;50.844;4.396;2023-04-19T01:22:09;30.77;;;24.30;;
23159;SDS011;11748;50.844;4.396;2023-04-19T01:24:40;30.15;;;23.67;;
23159;SDS011;11748;50.844;4.396;2023-04-19T01:27:05;31.67;;;25.10;;
23159;SDS011;11748;50.844;4.396;2023-04-19T01:29:32;30.38;;;25.15;;
23159;SDS011;11748;50.844;4.396;2023-04-19T01:31:57;31.02;;;24.23;;
23159;SDS011;11748;50.844;4.396;2023-04-19T01:34:23;32.42;;;25.52;;
23159;SDS011;11748;50.844;4.396;2023-04-19T01:36:50;29.83;;;24.77;;
23159;SDS011;11748;50.844;4.396;2023-04-19T01:39:15;32.97;;;24.48;;
23159;SDS011;11748;50.844;4.396;2023-04-19T01:41:41;30.70;;;24.17;;
23159;SDS011;11748;50.844;4.396;2023-04-19T01:44:07;30.55;;;24.67;;
23159;SDS011;11748;50.844;4.396;2023-04-19T01:46:33;31.02;;;24.50;;
23159;SDS011;11748;50.844;4.396;2023-04-19T01:49:00;32.55;;;24.80;;
23159;SDS011;11748;50.844;4.396;2023-04-19T01:51:26;30.63;;;23.83;;
23159;SDS011;11748;50.844;4.396;2023-04-19T01:53:52;30.88;;;24.17;;
23159;SDS011;11748;50.844;4.396;2023-04-19T01:56:19;29.88;;;24.88;;
23159;SDS011;11748;50.844;4.396;2023-04-19T01:58:48;32.58;;;25.58;;
23159;SDS011;11748;50.844;4.396;2023-04-19T02:01:14;32.25;;;25.13;;
23159;SDS011;11748;50.844;4.396;2023-04-19T02:03:39;30.67;;;24.75;;
23159;SDS011;11748;50.844;4.396;2023-04-19T02:06:05;31.70;;;23.38;;
23159;SDS011;11748;50.844;4.396;2023-04-19T02:08:35;29.67;;;24.13;;
23159;SDS011;11748;50.844;4.396;2023-04-19T02:11:05;29.63;;;24.35;;
23159;SDS011;11748;50.844;4.396;2023-04-19T02:13:32;29.58;;;23.85;;
23159;SDS011;11748;50.844;4.396;2023-04-19T02:15:58;30.33;;;24.05;;
23159;SDS011;11748;50.844;4.396;2023-04-19T02:18:26;30.27;;;24.50;;
23159;SDS011;11748;50.844;4.396;2023-04-19T02:20:54;30.70;;;24.52;;
23159;SDS011;11748;50.844;4.396;2023-04-19T02:23:20;28.50;;;24.13;;
23159;SDS011;11748;50.844;4.396;2023-04-19T02:25:45;30.67;;;24.00;;
23159;SDS011;11748;50.844;4.396;2023-04-19T02:28:11;29.20;;;23.67;;
23159;SDS011;11748;50.844;4.396;2023-04-19T02:30:37;27.70;;;22.98;;
23159;SDS011;11748;50.844;4.396;2023-04-19T02:33:03;30.55;;;23.52;;
23159;SDS011;11748;50.844;4.396;2023-04-19T02:35:28;29.45;;;24.20;;
23159;SDS011;11748;50.844;4.396;2023-04-19T02:37:54;32.35;;;22.73;;
23159;SDS011;11748;50.844;4.396;2023-04-19T02:40:20;28.17;;;22.70;;
23159;SDS011;11748;50.844;4.396;2023-04-19T02:42:47;26.58;;;21.52;;
23159;SDS011;11748;50.844;4.396;2023-04-19T02:45:12;27.13;;;22.50;;
23159;SDS011;11748;50.844;4.396;2023-04-19T02:47:38;29.13;;;22.80;;
23159;SDS011;11748;50.844;4.396;2023-04-19T02:50:04;27.33;;;22.38;;
23159;SDS011;11748;50.844;4.396;2023-04-19T02:52:30;27.38;;;22.48;;
23159;SDS011;11748;50.844;4.396;2023-04-19T02:54:56;26.17;;;21.90;;
23159;SDS011;11748;50.844;4.396;2023-04-19T02:57:22;27.67;;;22.25;;
23159;SDS011;11748;50.844;4.396;2023-04-19T02:59:47;28.05;;;21.20;;
23159;SDS011;11748;50.844;4.396;2023-04-19T03:02:13;27.67;;;21.75;;
23159;SDS011;11748;50.844;4.396;2023-04-19T03:04:39;27.13;;;21.83;;
23159;SDS011;11748;50.844;4.396;2023-04-19T03:07:05;28.45;;;22.08;;
23159;SDS011;11748;50.844;4.396;2023-04-19T03:09:33;27.20;;;21.52;;
23159;SDS011;11748;50.844;4.396;2023-04-19T03:11:58;27.60;;;22.42;;
23159;SDS011;11748;50.844;4.396;2023-04-19T03:14:25;27.35;;;21.48;;
23159;SDS011;11748;50.844;4.396;2023-04-19T03:16:51;26.60;;;21.40;;
23159;SDS011;11748;50.844;4.396;2023-04-19T03:19:16;25.52;;;21.95;;
23159;SDS011;11748;50.844;4.396;2023-04-19T03:21:42;26.50;;;21.88;;
23159;SDS011;11748;50.844;4.396;2023-04-19T03:24:08;25.73;;;20.83;;
23159;SDS011;11748;50.844;4.396;2023-04-19T03:26:34;24.77;;;21.08;;
23159;SDS011;11748;50.844;4.396;2023-04-19T03:28:59;29.05;;;21.05;;
23159;SDS011;11748;50.844;4.396;2023-04-19T03:31:25;27.08;;;21.02;;
23159;SDS011;11748;50.844;4.396;2023-04-19T03:33:51;25.13;;;20.35;;
23159;SDS011;11748;50.844;4.396;2023-04-19T03:36:17;29.05;;;21.67;;
23159;SDS011;11748;50.844;4.396;2023-04-19T03:38:42;26.80;;;21.50;;
23159;SDS011;11748;50.844;4.396;2023-04-19T03:41:26;24.15;;;20.42;;
23159;SDS011;11748;50.844;4.396;2023-04-19T03:43:52;28.13;;;21.60;;
23159;SDS011;11748;50.844;4.396;2023-04-19T03:46:17;24.13;;;20.30;;
23159;SDS011;11748;50.844;4.396;2023-04-19T03:48:43;27.95;;;21.42;;
23159;SDS011;11748;50.844;4.396;2023-04-19T03:51:09;25.13;;;20.80;;
23159;SDS011;11748;50.844;4.396;2023-04-19T03:53:35;25.35;;;21.45;;
23159;SDS011;11748;50.844;4.396;2023-04-19T03:56:01;26.77;;;22.10;;
23159;SDS011;11748;50.844;4.396;2023-04-19T03:58:27;28.63;;;22.08;;
23159;SDS011;11748;50.844;4.396;2023-04-19T04:00:53;27.27;;;22.27;;
23159;SDS011;11748;50.844;4.396;2023-04-19T04:03:18;30.27;;;23.58;;
23159;SDS011;11748;50.844;4.396;2023-04-19T04:05:44;27.85;;;21.88;;
23159;SDS011;11748;50.844;4.396;2023-04-19T04:08:10;27.67;;;22.20;;
23159;SDS011;11748;50.844;4.396;2023-04-19T04:10:35;29.27;;;21.30;;
23159;SDS011;11748;50.844;4.396;2023-04-19T04:13:01;29.48;;;22.23;;
23159;SDS011;11748;50.844;4.396;2023-04-19T04:15:27;27.90;;;21.92;;
23159;SDS011;11748;50.844;4.396;2023-04-19T04:17:53;30.13;;;21.70;;
23159;SDS011;11748;50.844;4.396;2023-04-19T04:20:18;30.58;;;22.90;;
23159;SDS011;11748;50.844;4.396;2023-04-19T04:22:44;28.20;;;22.15;;
23159;SDS011;11748;50.844;4.396;2023-04-19T04:25:11;29.88;;;23.02;;
23159;SDS011;11748;50.844;4.396;2023-04-19T04:27:37;28.52;;;22.50;;
23159;SDS011;11748;50.844;4.396;2023-04-19T04:30:04;30.60;;;21.77;;
23159;SDS011;11748;50.844;4.396;2023-04-19T04:32:30;28.60;;;22.20;;
23159;SDS011;11748;50.844;4.396;2023-04-19T04:34:59;27.38;;;22.70;;
23159;SDS011;11748;50.844;4.396;2023-04-19T04:37:30;25.00;;;20.48;;
23159;SDS011;11748;50.844;4.396;2023-04-19T04:39:58;28.45;;;21.88;;
23159;SDS011;11748;50.844;4.396;2023-04-19T04:42:24;28.20;;;22.02;;
23159;SDS011;11748;50.844;4.396;2023-04-19T04:44:50;28.10;;;22.58;;
23159;SDS011;11748;50.844;4.396;2023-04-19T04:47:16;32.22;;;22.15;;
23159;SDS011;11748;50.844;4.396;2023-04-19T04:49:42;27.60;;;21.60;;
23159;SDS011;11748;50.844;4.396;2023-04-19T04:52:07;28.52;;;22.60;;
23159;SDS011;11748;50.844;4.396;2023-04-19T04:54:33;28.25;;;21.70;;
23159;SDS011;11748;50.844;4.396;2023-04-19T04:56:59;31.20;;;22.83;;
23159;SDS011;11748;50.844;4.396;2023-04-19T04:59:25;31.77;;;23.00;;
23159;SDS011;11748;50.844;4.396;2023-04-19T05:01:51;32.45;;;22.02;;
23159;SDS011;11748;50.844;4.396;2023-04-19T05:04:17;33.20;;;23.25;;
23159;SDS011;11748;50.844;4.396;2023-04-19T05:06:43;28.95;;;21.55;;
23159;SDS011;11748;50.844;4.396;2023-04-19T05:09:09;28.35;;;22.05;;
23159;SDS011;11748;50.844;4.396;2023-04-19T05:11:35;31.65;;;21.90;;
23159;SDS011;11748;50.844;4.396;2023-04-19T05:14:01;31.27;;;22.33;;
23159;SDS011;11748;50.844;4.396;2023-04-19T05:16:28;28.58;;;22.10;;
23159;SDS011;11748;50.844;4.396;2023-04-19T05:18:54;30.42;;;22.98;;
23159;SDS011;11748;50.844;4.396;2023-04-19T05:21:20;27.85;;;22.17;;
23159;SDS011;11748;50.844;4.396;2023-04-19T05:23:46;31.88;;;23.63;;
23159;SDS011;11748;50.844;4.396;2023-04-19T05:26:13;28.77;;;21.25;;
23159;SDS011;11748;50.844;4.396;2023-04-19T05:28:39;31.95;;;23.17;;
23159;SDS011;11748;50.844;4.396;2023-04-19T05:31:07;33.35;;;22.95;;
23159;SDS011;11748;50.844;4.396;2023-04-19T05:33:33;32.22;;;23.23;;
23159;SDS011;11748;50.844;4.396;2023-04-19T05:35:58;31.55;;;23.55;;
23159;SDS011;11748;50.844;4.396;2023-04-19T05:38:24;29.33;;;22.10;;
23159;SDS011;11748;50.844;4.396;2023-04-19T05:40:50;31.90;;;22.13;;
23159;SDS011;11748;50.844;4.396;2023-04-19T05:43:15;32.75;;;22.77;;
23159;SDS011;11748;50.844;4.396;2023-04-19T05:45:41;33.25;;;23.50;;
23159;SDS011;11748;50.844;4.396;2023-04-19T05:48:07;29.05;;;22.80;;
23159;SDS011;11748;50.844;4.396;2023-04-19T05:50:32;30.30;;;22.65;;
23159;SDS011;11748;50.844;4.396;2023-04-19T05:53:00;31.08;;;22.63;;
23159;SDS011;11748;50.844;4.396;2023-04-19T05:55:26;31.20;;;22.65;;
23159;SDS011;11748;50.844;4.396;2023-04-19T05:57:52;30.65;;;22.80;;
23159;SDS011;11748;50.844;4.396;2023-04-19T06:00:18;35.17;;;23.17;;
23159;SDS011;11748;50.844;4.396;2023-04-19T06:02:43;30.83;;;22.60;;
23159;SDS011;11748;50.844;4.396;2023-04-19T06:05:09;29.42;;;22.70;;
23159;SDS011;11748;50.844;4.396;2023-04-19T06:07:36;32.28;;;22.60;;
23159;SDS011;11748;50.844;4.396;2023-04-19T06:10:01;29.98;;;22.05;;
23159;SDS011;11748;50.844;4.396;2023-04-19T06:12:27;31.92;;;22.83;;
23159;SDS011;11748;50.844;4.396;2023-04-19T06:14:53;29.60;;;22.40;;
23159;SDS011;11748;50.844;4.396;2023-04-19T06:17:19;31.77;;;23.17;;
23159;SDS011;11748;50.844;4.396;2023-04-19T06:19:51;29.38;;;23.15;;
23159;SDS011;11748;50.844;4.396;2023-04-19T06:22:18;32.38;;;22.25;;
23159;SDS011;11748;50.844;4.396;2023-04-19T06:24:45;30.40;;;23.33;;
23159;SDS011;11748;50.844;4.396;2023-04-19T06:27:11;29.25;;;22.38;;
23159;SDS011;11748;50.844;4.396;2023-04-19T06:29:37;30.67;;;21.63;;
23159;SDS011;11748;50.844;4.396;2023-04-19T06:32:03;26.70;;;21.23;;
23159;SDS011;11748;50.844;4.396;2023-04-19T06:34:28;29.67;;;22.13;;
23159;SDS011;11748;50.844;4.396;2023-04-19T06:36:54;28.02;;;20.60;;
23159;SDS011;11748;50.844;4.396;2023-04-19T06:39:20;27.67;;;20.38;;
23159;SDS011;11748;50.844;4.396;2023-04-19T06:41:46;27.38;;;21.45;;
23159;SDS011;11748;50.844;4.396;2023-04-19T06:44:12;26.73;;;20.13;;
23159;SDS011;11748;50.844;4.396;2023-04-19T06:46:38;25.23;;;19.65;;
23159;SDS011;11748;50.844;4.396;2023-04-19T06:49:04;28.52;;;20.15;;
23159;SDS011;11748;50.844;4.396;2023-04-19T06:51:30;26.17;;;19.98;;
23159;SDS011;11748;50.844;4.396;2023-04-19T06:53:57;25.45;;;20.20;;
23159;SDS011;11748;50.844;4.396;2023-04-19T06:56:41;24.48;;;19.25;;
23159;SDS011;11748;50.844;4.396;2023-04-19T06:59:09;25.23;;;18.50;;
23159;SDS011;11748;50.844;4.396;2023-04-19T07:01:36;25.05;;;19.00;;
23159;SDS011;11748;50.844;4.396;2023-04-19T07:04:03;21.50;;;17.90;;
23159;SDS011;11748;50.844;4.396;2023-04-19T07:06:29;24.90;;;17.95;;
23159;SDS011;11748;50.844;4.396;2023-04-19T07:08:55;23.85;;;18.30;;
23159;SDS011;11748;50.844;4.396;2023-04-19T07:11:21;29.65;;;17.83;;
23159;SDS011;11748;50.844;4.396;2023-04-19T07:13:47;24.75;;;17.85;;
23159;SDS011;11748;50.844;4.396;2023-04-19T07:16:13;23.73;;;17.90;;
23159;SDS011;11748;50.844;4.396;2023-04-19T07:18:39;25.85;;;18.30;;
23159;SDS011;11748;50.844;4.396;2023-04-19T07:21:05;20.92;;;17.23;;
23159;SDS011;11748;50.844;4.396;2023-04-19T07:23:30;23.85;;;16.95;;
23159;SDS011;11748;50.844;4.396;2023-04-19T07:25:56;23.40;;;17.58;;
23159;SDS011;11748;50.844;4.396;2023-04-19T07:28:22;25.13;;;18.10;;
23159;SDS011;11748;50.844;4.396;2023-04-19T07:30:47;21.85;;;17.08;;
23159;SDS011;11748;50.844;4.396;2023-04-19T07:33:13;21.10;;;16.30;;
23159;SDS011;11748;50.844;4.396;2023-04-19T07:35:39;19.92;;;15.80;;
23159;SDS011;11748;50.844;4.396;2023-04-19T07:38:05;19.40;;;15.73;;
23159;SDS011;11748;50.844;4.396;2023-04-19T07:40:31;21.63;;;15.90;;
23159;SDS011;11748;50.844;4.396;2023-04-19T07:42:57;22.00;;;15.88;;
23159;SDS011;11748;50.844;4.396;2023-04-19T07:45:22;24.77;;;16.42;;
23159;SDS011;11748;50.844;4.396;2023-04-19T07:47:48;20.02;;;15.30;;
23159;SDS011;11748;50.844;4.396;2023-04-19T07:50:14;26.23;;;17.10;;
23159;SDS011;11748;50.844;4.396;2023-04-19T07:52:40;21.38;;;16.77;;
23159;SDS011;11748;50.844;4.396;2023-04-19T07:55:05;20.15;;;15.70;;
23159;SDS011;11748;50.844;4.396;2023-04-19T07:57:33;18.85;;;15.65;;
23159;SDS011;11748;50.844;4.396;2023-04-19T07:59:59;18.90;;;14.63;;
23159;SDS011;11748;50.844;4.396;2023-04-19T08:02:26;20.33;;;15.95;;
23159;SDS011;11748;50.844;4.396;2023-04-19T08:04:52;19.00;;;14.43;;
23159;SDS011;11748;50.844;4.396;2023-04-19T08:07:18;18.00;;;14.32;;
23159;SDS011;11748;50.844;4.396;2023-04-19T08:09:43;20.15;;;15.13;;
23159;SDS011;11748;50.844;4.396;2023-04-19T08:12:09;15.23;;;13.15;;
23159;SDS011;11748;50.844;4.396;2023-04-19T08:14:35;19.88;;;14.63;;
23159;SDS011;11748;50.844;4.396;2023-04-19T08:17:03;19.42;;;13.40;;
23159;SDS011;11748;50.844;4.396;2023-04-19T08:19:28;18.55;;;13.88;;
23159;SDS011;11748;50.844;4.396;2023-04-19T08:21:54;17.05;;;12.50;;
23159;SDS011;11748;50.844;4.396;2023-04-19T08:24:21;18.17;;;13.50;;
23159;SDS011;11748;50.844;4.396;2023-04-19T08:26:47;17.73;;;13.45;;
23159;SDS011;11748;50.844;4.396;2023-04-19T08:29:20;16.92;;;13.82;;
23159;SDS011;11748;50.844;4.396;2023-04-19T08:31:47;17.15;;;14.00;;
23159;SDS011;11748;50.844;4.396;2023-04-19T08:34:12;18.30;;;14.27;;
23159;SDS011;11748;50.844;4.396;2023-04-19T08:36:38;17.08;;;13.68;;
23159;SDS011;11748;50.844;4.396;2023-04-19T08:39:04;19.35;;;13.43;;
23159;SDS011;11748;50.844;4.396;2023-04-19T08:41:31;17.30;;;12.90;;
23159;SDS011;11748;50.844;4.396;2023-04-19T08:43:56;16.35;;;13.73;;
23159;SDS011;11748;50.844;4.396;2023-04-19T08:46:23;17.13;;;14.30;;
23159;SDS011;11748;50.844;4.396;2023-04-19T08:48:50;15.20;;;13.10;;
23159;SDS011;11748;50.844;4.396;2023-04-19T08:51:17;16.10;;;13.43;;
23159;SDS011;11748;50.844;4.396;2023-04-19T08:53:44;20.23;;;13.20;;
23159;SDS011;11748;50.844;4.396;2023-04-19T08:56:10;18.25;;;12.63;;
23159;SDS011;11748;50.844;4.396;2023-04-19T08:58:36;15.77;;;12.23;;
23159;SDS011;11748;50.844;4.396;2023-04-19T09:01:06;14.80;;;12.27;;
23159;SDS011;11748;50.844;4.396;2023-04-19T09:03:32;14.30;;;12.07;;
23159;SDS011;11748;50.844;4.396;2023-04-19T09:05:59;16.13;;;13.15;;
23159;SDS011;11748;50.844;4.396;2023-04-19T09:08:29;16.73;;;12.52;;
23159;SDS011;11748;50.844;4.396;2023-04-19T09:10:59;14.93;;;13.10;;
23159;SDS011;11748;50.844;4.396;2023-04-19T09:13:26;15.10;;;12.30;;
23159;SDS011;11748;50.844;4.396;2023-04-19T09:15:53;16.17;;;12.60;;
23159;SDS011;11748;50.844;4.396;2023-04-19T09:18:21;16.17;;;12.35;;
23159;SDS011;11748;50.844;4.396;2023-04-19T09:20:49;15.07;;;11.90;;
23159;SDS011;11748;50.844;4.396;2023-04-19T09:23:16;14.30;;;12.27;;
23159;SDS011;11748;50.844;4.396;2023-04-19T09:28:17;14.82;;;12.80;;
23159;SDS011;11748;50.844;4.396;2023-04-19T09:30:42;16.92;;;12.30;;
23159;SDS011;11748;50.844;4.396;2023-04-19T09:33:08;13.63;;;11.73;;
23159;SDS011;11748;50.844;4.396;2023-04-19T09:35:40;13.13;;;11.10;;
23159;SDS011;11748;50.844;4.396;2023-04-19T09:38:07;12.43;;;10.52;;
23159;SDS011;11748;50.844;4.396;2023-04-19T09:40:34;12.55;;;10.93;;
23159;SDS011;11748;50.844;4.396;2023-04-19T09:43:00;12.57;;;11.18;;
23159;SDS011;11748;50.844;4.396;2023-04-19T09:45:28;14.90;;;11.80;;
23159;SDS011;11748;50.844;4.396;2023-04-19T09:48:11;14.80;;;10.55;;
23159;SDS011;11748;50.844;4.396;2023-04-19T09:50:53;12.75;;;10.32;;
23159;SDS011;11748;50.844;4.396;2023-04-19T09:53:20;13.82;;;10.02;;
23159;SDS011;11748;50.844;4.396;2023-04-19T09:55:47;10.95;;;9.77;;
23159;SDS011;11748;50.844;4.396;2023-04-19T09:58:13;12.05;;;10.00;;
23159;SDS011;11748;50.844;4.396;2023-04-19T10:00:40;10.90;;;9.55;;
23159;SDS011;11748;50.844;4.396;2023-04-19T10:03:08;11.25;;;10.05;;
23159;SDS011;11748;50.844;4.396;2023-04-19T10:05:37;14.38;;;10.15;;
23159;SDS011;11748;50.844;4.396;2023-04-19T10:08:07;11.95;;;9.38;;
23159;SDS011;11748;50.844;4.396;2023-04-19T10:10:34;12.43;;;9.23;;
23159;SDS011;11748;50.844;4.396;2023-04-19T10:13:01;11.20;;;9.18;;
23159;SDS011;11748;50.844;4.396;2023-04-19T10:15:31;11.60;;;9.57;;
23159;SDS011;11748;50.844;4.396;2023-04-19T10:18:02;11.35;;;9.90;;
23159;SDS011;11748;50.844;4.396;2023-04-19T10:20:31;11.00;;;9.07;;
23159;SDS011;11748;50.844;4.396;2023-04-19T10:23:02;13.23;;;10.25;;
23159;SDS011;11748;50.844;4.396;2023-04-19T10:25:31;10.57;;;8.52;;
23159;SDS011;11748;50.844;4.396;2023-04-19T10:27:56;9.43;;;8.05;;
23159;SDS011;11748;50.844;4.396;2023-04-19T10:30:24;9.18;;;8.27;;
23159;SDS011;11748;50.844;4.396;2023-04-19T10:32:54;10.02;;;8.73;;
23159;SDS011;11748;50.844;4.396;2023-04-19T10:38:06;8.10;;;7.05;;
23159;SDS011;11748;50.844;4.396;2023-04-19T10:43:23;10.98;;;8.63;;
23159;SDS011;11748;50.844;4.396;2023-04-19T10:45:50;10.00;;;8.10;;
23159;SDS011;11748;50.844;4.396;2023-04-19T10:57:06;10.13;;;7.80;;
23159;SDS011;11748;50.844;4.396;2023-04-19T10:59:23;9.98;;;7.63;;
23159;SDS011;11748;50.844;4.396;2023-04-19T11:01:52;7.88;;;7.07;;
23159;SDS011;11748;50.844;4.396;2023-04-19T11:04:23;9.07;;;7.53;;
23159;SDS011;11748;50.844;4.396;2023-04-19T11:07:14;9.60;;;7.10;;
23159;SDS011;11748;50.844;4.396;2023-04-19T11:09:45;9.20;;;6.80;;
23159;SDS011;11748;50.844;4.396;2023-04-19T11:12:15;9.27;;;7.35;;
23159;SDS011;11748;50.844;4.396;2023-04-19T11:14:44;9.50;;;7.28;;
23159;SDS011;11748;50.844;4.396;2023-04-19T11:17:42;11.68;;;8.23;;
23159;SDS011;11748;50.844;4.396;2023-04-19T11:20:04;8.05;;;7.20;;
23159;SDS011;11748;50.844;4.396;2023-04-19T11:22:39;8.23;;;7.20;;
23159;SDS011;11748;50.844;4.396;2023-04-19T11:27:40;12.65;;;7.47;;
23159;SDS011;11748;50.844;4.396;2023-04-19T11:30:10;9.55;;;6.95;;
23159;SDS011;11748;50.844;4.396;2023-04-19T11:32:43;10.50;;;6.82;;
23159;SDS011;11748;50.844;4.396;2023-04-19T11:35:10;8.25;;;6.47;;
23159;SDS011;11748;50.844;4.396;2023-04-19T11:37:36;8.25;;;6.70;;
23159;SDS011;11748;50.844;4.396;2023-04-19T11:40:04;8.32;;;7.30;;
23159;SDS011;11748;50.844;4.396;2023-04-19T11:42:32;13.27;;;7.38;;
23159;SDS011;11748;50.844;4.396;2023-04-19T11:44:58;8.30;;;6.57;;
23159;SDS011;11748;50.844;4.396;2023-04-19T11:47:24;8.00;;;6.60;;
23159;SDS011;11748;50.844;4.396;2023-04-19T11:49:53;9.43;;;7.15;;
23159;SDS011;11748;50.844;4.396;2023-04-19T11:52:20;10.43;;;7.45;;
23159;SDS011;11748;50.844;4.396;2023-04-19T11:54:48;9.55;;;7.43;;
23159;SDS011;11748;50.844;4.396;2023-04-19T11:57:14;16.52;;;7.97;;
23159;SDS011;11748;50.844;4.396;2023-04-19T12:00:06;12.82;;;8.18;;
23159;SDS011;11748;50.844;4.396;2023-04-19T12:02:36;14.63;;;8.23;;
23159;SDS011;11748;50.844;4.396;2023-04-19T12:05:15;10.38;;;8.10;;
23159;SDS011;11748;50.844;4.396;2023-04-19T12:10:32;15.23;;;8.55;;
23159;SDS011;11748;50.844;4.396;2023-04-19T12:12:59;22.33;;;9.02;;
23159;SDS011;11748;50.844;4.396;2023-04-19T12:15:41;12.80;;;8.10;;
23159;SDS011;11748;50.844;4.396;2023-04-19T12:18:08;9.93;;;7.85;;
23159;SDS011;11748;50.844;4.396;2023-04-19T12:20:34;12.57;;;7.15;;
23159;SDS011;11748;50.844;4.396;2023-04-19T12:23:03;9.18;;;7.10;;
23159;SDS011;11748;50.844;4.396;2023-04-19T12:25:29;12.02;;;6.70;;
23159;SDS011;11748;50.844;4.396;2023-04-19T12:27:57;10.13;;;6.10;;
23159;SDS011;11748;50.844;4.396;2023-04-19T12:30:23;7.97;;;6.40;;
23159;SDS011;11748;50.844;4.396;2023-04-19T12:32:50;9.90;;;6.57;;
23159;SDS011;11748;50.844;4.396;2023-04-19T12:35:19;7.13;;;5.35;;
23159;SDS011;11748;50.844;4.396;2023-04-19T12:37:54;8.10;;;6.45;;
23159;SDS011;11748;50.844;4.396;2023-04-19T12:40:21;7.70;;;5.78;;
23159;SDS011;11748;50.844;4.396;2023-04-19T12:42:48;9.55;;;5.85;;
23159;SDS011;11748;50.844;4.396;2023-04-19T12:45:14;9.32;;;5.65;;
23159;SDS011;11748;50.844;4.396;2023-04-19T12:47:43;8.52;;;5.88;;
23159;SDS011;11748;50.844;4.396;2023-04-19T12:50:10;10.15;;;6.47;;
23159;SDS011;11748;50.844;4.396;2023-04-19T12:52:37;9.43;;;5.82;;
23159;SDS011;11748;50.844;4.396;2023-04-19T12:55:03;11.85;;;5.43;;
23159;SDS011;11748;50.844;4.396;2023-04-19T12:57:29;12.15;;;5.97;;
23159;SDS011;11748;50.844;4.396;2023-04-19T12:59:55;7.75;;;5.28;;
23159;SDS011;11748;50.844;4.396;2023-04-19T13:02:20;7.55;;;5.78;;
23159;SDS011;11748;50.844;4.396;2023-04-19T13:04:46;9.73;;;5.40;;
23159;SDS011;11748;50.844;4.396;2023-04-19T13:07:12;5.97;;;4.93;;
23159;SDS011;11748;50.844;4.396;2023-04-19T13:09:37;8.43;;;4.72;;
23159;SDS011;11748;50.844;4.396;2023-04-19T13:12:06;7.28;;;5.75;;
23159;SDS011;11748;50.844;4.396;2023-04-19T13:14:32;9.13;;;5.70;;
23159;SDS011;11748;50.844;4.396;2023-04-19T13:16:58;13.38;;;5.43;;
23159;SDS011;11748;50.844;4.396;2023-04-19T13:19:24;7.60;;;5.20;;
23159;SDS011;11748;50.844;4.396;2023-04-19T13:21:50;7.88;;;4.85;;
23159;SDS011;11748;50.844;4.396;2023-04-19T13:24:16;7.22;;;5.00;;
23159;SDS011;11748;50.844;4.396;2023-04-19T13:26:42;5.93;;;4.05;;
23159;SDS011;11748;50.844;4.396;2023-04-19T13:29:10;9.50;;;3.85;;
23159;SDS011;11748;50.844;4.396;2023-04-19T13:31:36;7.00;;;3.92;;
23159;SDS011;11748;50.844;4.396;2023-04-19T13:34:02;9.27;;;4.22;;
23159;SDS011;11748;50.844;4.396;2023-04-19T13:36:28;6.35;;;4.00;;
23159;SDS011;11748;50.844;4.396;2023-04-19T13:38:53;5.32;;;4.10;;
23159;SDS011;11748;50.844;4.396;2023-04-19T13:41:19;8.20;;;3.70;;
23159;SDS011;11748;50.844;4.396;2023-04-19T13:43:45;5.03;;;3.95;;
23159;SDS011;11748;50.844;4.396;2023-04-19T13:46:11;6.53;;;4.15;;
23159;SDS011;11748;50.844;4.396;2023-04-19T13:48:37;6.78;;;4.30;;
23159;SDS011;11748;50.844;4.396;2023-04-19T13:51:03;6.38;;;4.18;;
23159;SDS011;11748;50.844;4.396;2023-04-19T13:53:30;6.63;;;4.78;;
23159;SDS011;11748;50.844;4.396;2023-04-19T13:55:55;5.90;;;4.53;;
23159;SDS011;11748;50.844;4.396;2023-04-19T13:58:21;4.90;;;4.03;;
23159;SDS011;11748;50.844;4.396;2023-04-19T14:00:49;7.80;;;4.07;;
23159;SDS011;11748;50.844;4.396;2023-04-19T14:03:15;5.18;;;3.40;;
23159;SDS011;11748;50.844;4.396;2023-04-19T14:05:41;7.13;;;3.22;;
23159;SDS011;11748;50.844;4.396;2023-04-19T14:08:07;4.65;;;2.50;;
23159;SDS011;11748;50.844;4.396;2023-04-19T14:10:33;8.90;;;3.53;;
23159;SDS011;11748;50.844;4.396;2023-04-19T14:13:00;8.48;;;3.22;;
23159;SDS011;11748;50.844;4.396;2023-04-19T14:15:26;4.57;;;3.03;;
23159;SDS011;11748;50.844;4.396;2023-04-19T14:17:52;4.55;;;2.70;;
23159;SDS011;11748;50.844;4.396;2023-04-19T14:20:17;7.30;;;2.00;;
23159;SDS011;11748;50.844;4.396;2023-04-19T14:22:44;3.38;;;2.30;;
23159;SDS011;11748;50.844;4.396;2023-04-19T14:25:10;2.67;;;1.90;;
23159;SDS011;11748;50.844;4.396;2023-04-19T14:27:39;4.63;;;2.17;;
23159;SDS011;11748;50.844;4.396;2023-04-19T14:30:06;4.55;;;2.30;;
23159;SDS011;11748;50.844;4.396;2023-04-19T14:32:32;3.67;;;2.10;;
23159;SDS011;11748;50.844;4.396;2023-04-19T14:34:58;3.85;;;2.05;;
23159;SDS011;11748;50.844;4.396;2023-04-19T14:37:24;5.32;;;2.13;;
23159;SDS011;11748;50.844;4.396;2023-04-19T14:39:50;3.63;;;1.90;;
23159;SDS011;11748;50.844;4.396;2023-04-19T14:42:16;2.97;;;2.10;;
23159;SDS011;11748;50.844;4.396;2023-04-19T14:44:42;3.33;;;2.03;;
23159;SDS011;11748;50.844;4.396;2023-04-19T14:47:09;3.97;;;1.88;;
23159;SDS011;11748;50.844;4.396;2023-04-19T14:49:35;3.97;;;2.10;;